Decoded Metar for KDMW (CARROLL CNTY REG in MD, USA) (IATA:DMW) | Meteo·Mobile Aviation Weather
aviador You're here:

KDMW Decoded Metar

CARROLL CNTY REG in MD, USA
Report Time2019-09-21 08:40:00
UTC Time2019-09-21 08:58:29
Flight Rules vfr VFR
WindCalm
Visibility9999 m
Phenomena:N/A
Clouds:N/A
Expected CloudBase > 800 ft AGL from Temp-Dew spread
CeilingNone
Temp14°C (ISA +1)
Dew Point12°C (88% RH)
QNH1024 hPa
Density Alt679 ft
Elevation791 ft
Report Wrong Elevation
Raw Report
KDMW 210840Z AUTO 00000KT 10SM CLR 14/12 A3023 RMK AO2=

Extra information for KDMW:More info

Metar Taf Metar & Taf Last 4 Metars F.Rules Stats Wind Profile Meteogram Temp Stats Airport Information Weather charts Add Link Nearby VenuesMetar ALERT Operation Metar Decoded Social comments

AIRNAV info for KDMW